Current Weather

Salinas Muni

Salinas, California (KSNS)

Report from: Wednesday, April 24, 2024 10:53 AM PDT
Current time: Wednesday, April 24, 2024 11:25 AM PDT

Nearby weather – Weather history – Daily summaries
Weather forecast

Temperature15.0°C (59.0°F)
Dew point8.3°C (46.9°F)
Winds 3 kts (1.5 m/s, 3.5 mph) South-Southeast (160°)
Visibility10 mi. (16.1 km)
Clouds Ceiling: Overcast 3,700 ft. (1,128 m)
Altimeter30.09 in.Hg (1019 mB)
Relative humidity64 %
Density altitude-67 ft. (-21 m)
Sea-level pressure102.0 kPa (1020 mB, 30.12 in.Hg)
Max temp last 6 hours15.0°C (59.0°F)
Min temp last 6 hours11.7°C (53.1°F)
Remarks Automated weather observing station with precipitation discriminator
Pressure rising more quickly
Flight conditions Visual Meteorological Conditions
Raw dataKSNS 241753Z 16003KT 10SM OVC037 15/08 A3009 RMK AO2 SLP199 T01500083 10150 20117 53006
An error has occurred. This application may no longer respond until reloaded. Reload 🗙